Time;durP1;ratioP1;P1;durP2;ratioP2;P2;SDS_P1;SDS_P2;PMS_P1;PMS_P2;Temp;Humidity;BMP_temperature;BMP_pressure;BME280_temperature;BME280_humidity;BME280_pressure;Samples;Min_cycle;Max_cycle;Signal;HPM_P1;HPM_P2
2022/09/30 00:04:12;;;;;;;26.48;22.87;;;22.10;64.30;;;;;;4440599;59;21028;-31
2022/09/30 00:09:14;;;;;;;29.58;24.55;;;22.00;64.20;;;;;;4450400;59;21143;-29
2022/09/30 00:14:19;;;;;;;25.88;22.75;;;22.10;64.30;;;;;;4442629;59;21109;-29
2022/09/30 00:19:20;;;;;;;28.92;23.55;;;22.00;64.30;;;;;;4439733;63;22533;-32
2022/09/30 00:24:21;;;;;;;26.52;23.20;;;22.00;64.30;;;;;;4482383;58;21063;-32
2022/09/30 00:29:22;;;;;;;26.25;23.15;;;22.00;64.30;;;;;;4455990;58;21056;-32
2022/09/30 00:34:23;;;;;;;26.48;22.83;;;22.00;64.30;;;;;;4472237;58;21052;-40
2022/09/30 00:39:26;;;;;;;24.12;21.12;;;22.00;64.20;;;;;;4458021;58;21045;-29
2022/09/30 00:46:31;;;;;;;24.52;21.83;;;22.00;64.30;;;;;;4440284;59;21165;-32
2022/09/30 00:51:37;;;;;;;24.98;21.45;;;22.00;64.30;;;;;;4439819;63;21582;-29
2022/09/30 00:56:43;;;;;;;23.60;21.00;;;22.00;65.00;;;;;;4452374;59;21170;-31
2022/09/30 01:01:44;;;;;;;26.25;21.65;;;22.00;64.30;;;;;;4439995;63;21037;-28
2022/09/30 01:06:45;;;;;;;24.48;20.83;;;22.00;64.30;;;;;;4449746;58;21513;-31
2022/09/30 01:11:46;;;;;;;23.55;20.60;;;22.00;64.30;;;;;;4440303;58;21057;-32
2022/09/30 01:17:16;;;;;;;25.67;21.23;;;22.00;64.30;;;;;;4462885;59;21040;-32
2022/09/30 01:26:00;;;;;;;23.92;20.80;;;22.00;64.40;;;;;;4444809;59;21076;-30
2022/09/30 01:34:07;;;;;;;23.10;20.70;;;22.00;64.40;;;;;;4440027;63;21117;-27
2022/09/30 01:40:48;;;;;;;22.90;20.40;;;22.00;64.40;;;;;;4454322;59;21597;-33
2022/09/30 01:46:01;;;;;;;22.58;20.20;;;22.00;64.40;;;;;;4439625;59;21076;-30
2022/09/30 01:51:42;;;;;;;21.60;19.40;;;22.00;64.40;;;;;;4473933;59;21625;-28
2022/09/30 01:57:00;;;;;;;21.62;19.33;;;22.00;64.40;;;;;;4440200;63;21068;-27
2022/09/30 02:02:07;;;;;;;;;;;22.00;64.40;;;;;;4443137;63;21068;-29
2022/09/30 02:07:16;;;;;;;22.30;19.05;;;22.00;64.40;;;;;;4441141;58;20161;-28
2022/09/30 02:12:21;;;;;;;20.52;18.33;;;22.00;64.40;;;;;;4464882;59;21048;-27
2022/09/30 02:17:34;;;;;;;20.90;18.45;;;22.00;64.40;;;;;;4440679;63;21117;-28
2022/09/30 02:22:45;;;;;;;20.30;18.15;;;22.00;64.40;;;;;;4474376;59;21100;-32
2022/09/30 02:27:53;;;;;;;20.25;17.60;;;22.00;64.50;;;;;;4464871;59;21048;-31
2022/09/30 02:33:08;;;;;;;21.12;17.62;;;22.00;64.40;;;;;;4496179;59;21586;-28
2022/09/30 02:38:18;;;;;;;19.25;17.17;;;22.00;64.40;;;;;;4443436;59;21112;-32
2022/09/30 02:43:20;;;;;;;20.33;17.05;;;22.00;64.40;;;;;;4443089;59;21084;-28
2022/09/30 02:48:31;;;;;;;19.02;17.02;;;22.00;64.40;;;;;;4439163;63;21643;-27
2022/09/30 02:53:51;;;;;;;19.50;17.40;;;22.00;64.40;;;;;;4452667;59;21084;-29
2022/09/30 02:58:55;;;;;;;18.92;16.92;;;22.00;64.40;;;;;;4445512;59;21670;-32
2022/09/30 03:04:08;;;;;;;17.90;15.60;;;22.00;64.40;;;;;;4467102;59;21558;-27
2022/09/30 03:09:09;;;;;;;18.50;16.42;;;22.00;64.40;;;;;;4441776;59;21072;-30
2022/09/30 03:18:01;;;;;;;18.05;16.12;;;22.00;64.40;;;;;;4452023;58;21056;-28
2022/09/30 03:26:31;;;;;;;17.80;15.90;;;22.00;64.40;;;;;;4444717;59;21607;-31
2022/09/30 03:32:02;;;;;;;17.62;15.73;;;22.00;64.40;;;;;;4446338;59;21132;-33
2022/09/30 03:37:26;;;;;;;16.62;14.87;;;22.00;64.40;;;;;;4444719;59;21062;-29
2022/09/30 03:42:37;;;;;;;16.55;14.82;;;22.00;64.40;;;;;;4440990;59;21530;-29
2022/09/30 03:47:50;;;;;;;16.30;14.60;;;22.00;64.50;;;;;;4439697;63;21059;-33
2022/09/30 03:52:52;;;;;;;16.08;14.38;;;22.00;64.50;;;;;;4477640;59;21043;-31
2022/09/30 03:57:53;;;;;;;17.02;14.55;;;22.00;64.50;;;;;;4462414;59;21164;-28
2022/09/30 04:02:54;;;;;;;16.62;14.48;;;22.00;64.50;;;;;;4440832;58;21388;-32
2022/09/30 04:07:54;;;;;;;16.75;15.02;;;22.00;64.50;;;;;;4462410;59;21036;-31
2022/09/30 04:12:56;;;;;;;16.37;14.30;;;22.00;64.60;;;;;;4458619;58;21113;-29
2022/09/30 04:17:58;;;;;;;16.17;14.57;;;22.00;64.60;;;;;;4439903;62;21168;-29
2022/09/30 04:23:00;;;;;;;16.08;14.38;;;22.00;64.70;;;;;;4489917;58;21575;-29
2022/09/30 04:28:01;;;;;;;15.45;13.70;;;22.00;64.80;;;;;;4455009;59;21036;-30
2022/09/30 04:33:01;;;;;;;15.40;13.75;;;22.00;64.80;;;;;;4447962;58;21072;-30
2022/09/30 04:38:06;;;;;;;15.52;13.93;;;22.00;64.80;;;;;;4467657;58;21073;-30
2022/09/30 04:43:06;;;;;;;16.48;14.07;;;22.00;64.90;;;;;;4441020;58;21539;-28
2022/09/30 04:48:07;;;;;;;15.98;14.27;;;22.00;65.00;;;;;;4441916;58;21064;-28
2022/09/30 04:53:10;;;;;;;15.50;13.90;;;22.00;64.90;;;;;;4444204;58;21024;-32
2022/09/30 04:58:11;;;;;;;14.85;13.25;;;22.00;65.50;;;;;;4440114;59;21797;-29
2022/09/30 05:03:12;;;;;;;14.50;12.98;;;22.00;64.90;;;;;;4444342;59;21101;-31
2022/09/30 05:08:14;;;;;;;15.35;13.75;;;22.00;64.90;;;;;;4441831;58;21100;-28
2022/09/30 05:13:15;;;;;;;14.65;13.10;;;22.00;64.90;;;;;;4441069;58;21117;-32
2022/09/30 05:18:17;;;;;;;14.82;13.18;;;22.00;65.50;;;;;;4440237;58;21096;-29
2022/09/30 05:23:19;;;;;;;14.35;12.85;;;22.00;64.90;;;;;;4441907;59;21068;-28
2022/09/30 05:28:20;;;;;;;13.93;12.50;;;22.00;64.90;;;;;;4452119;59;21068;-27
2022/09/30 05:33:21;;;;;;;15.35;13.40;;;22.00;64.90;;;;;;4441962;58;21076;-29
2022/09/30 05:38:22;;;;;;;15.20;13.60;;;22.00;64.80;;;;;;4443889;58;21048;-28
2022/09/30 05:43:24;;;;;;;14.55;13.00;;;22.00;64.80;;;;;;4444251;58;21060;-30
2022/09/30 05:48:25;;;;;;;14.65;12.85;;;22.00;64.90;;;;;;4471299;59;21061;-28
2022/09/30 05:53:27;;;;;;;14.38;12.73;;;21.90;64.80;;;;;;4464291;59;21200;-29
2022/09/30 05:58:28;;;;;;;15.82;13.60;;;22.00;64.80;;;;;;4452830;59;21120;-32
2022/09/30 06:03:29;;;;;;;14.38;12.88;;;22.00;64.80;;;;;;4439717;62;21522;-28
2022/09/30 06:08:30;;;;;;;15.73;13.77;;;21.90;64.70;;;;;;4439046;59;21623;-29
2022/09/30 06:13:32;;;;;;;14.00;12.37;;;22.00;64.80;;;;;;4455312;59;21044;-29
2022/09/30 06:18:33;;;;;;;15.20;13.60;;;22.00;64.80;;;;;;4461150;58;21100;-31
2022/09/30 06:23:35;;;;;;;16.70;13.75;;;22.00;64.70;;;;;;4448130;59;21257;-30
2022/09/30 06:28:36;;;;;;;16.98;14.20;;;22.00;64.70;;;;;;4441809;59;21614;-32
2022/09/30 06:33:38;;;;;;;17.12;14.98;;;22.00;64.70;;;;;;4444681;58;21100;-28
2022/09/30 06:38:39;;;;;;;18.27;15.43;;;22.00;64.70;;;;;;4441064;62;21144;-33
2022/09/30 06:43:41;;;;;;;18.80;14.52;;;22.00;64.70;;;;;;4474187;58;21592;-29
2022/09/30 06:48:42;;;;;;;21.12;15.85;;;21.90;64.60;;;;;;4439371;58;21626;-31
2022/09/30 06:53:43;;;;;;;32.00;24.15;;;21.90;64.70;;;;;;4453022;58;21100;-30
2022/09/30 06:58:44;;;;;;;38.55;29.23;;;22.00;64.20;;;;;;4442259;58;21081;-35
2022/09/30 07:03:46;;;;;;;36.97;27.27;;;22.00;64.40;;;;;;4440065;59;21187;-28
2022/09/30 07:08:47;;;;;;;38.03;26.52;;;22.00;64.70;;;;;;4445006;59;21092;-31
2022/09/30 07:13:48;;;;;;;28.48;23.60;;;22.00;64.40;;;;;;4442026;59;21140;-27
2022/09/30 07:18:49;;;;;;;34.38;24.02;;;22.00;64.40;;;;;;4461135;58;22221;-31
2022/09/30 07:23:51;;;;;;;32.33;22.80;;;22.10;64.50;;;;;;4469691;58;21779;-32
2022/09/30 07:28:52;;;;;;;37.50;25.20;;;22.10;64.50;;;;;;4449451;59;21601;-32
2022/09/30 07:33:54;;;;;;;41.13;25.73;;;22.10;64.50;;;;;;4484219;58;21545;-30
2022/09/30 07:38:56;;;;;;;36.92;24.23;;;22.20;64.50;;;;;;4448481;59;21041;-29
2022/09/30 07:44:00;;;;;;;53.42;28.23;;;22.10;64.60;;;;;;4456049;59;21569;-28
2022/09/30 07:49:04;;;;;;;44.33;26.70;;;22.10;64.80;;;;;;4448919;58;21561;-32
2022/09/30 07:54:11;;;;;;;46.53;26.92;;;22.10;64.80;;;;;;4445710;59;21081;-28
2022/09/30 07:59:12;;;;;;;46.60;28.73;;;22.10;65.00;;;;;;4443185;59;21028;-30
2022/09/30 08:04:14;;;;;;;47.92;28.27;;;22.10;64.70;;;;;;4439878;58;21117;-27
2022/09/30 08:09:18;;;;;;;47.50;27.17;;;22.10;64.80;;;;;;4471766;59;21131;-33
2022/09/30 08:14:22;;;;;;;39.40;24.87;;;22.20;65.10;;;;;;4450819;59;21096;-29
2022/09/30 08:19:25;;;;;;;39.08;25.90;;;22.20;65.00;;;;;;4456520;59;21057;-32
2022/09/30 08:24:26;;;;;;;42.00;26.30;;;22.20;64.90;;;;;;4440425;59;21125;-34
2022/09/30 08:29:27;;;;;;;42.17;25.80;;;22.20;64.80;;;;;;4440356;59;21121;-33
2022/09/30 08:34:32;;;;;;;38.35;26.25;;;22.30;64.80;;;;;;4441066;58;21064;-33
2022/09/30 08:39:33;;;;;;;44.80;27.92;;;22.30;64.80;;;;;;4445936;58;21576;-28
2022/09/30 08:44:46;;;;;;;41.75;27.23;;;22.20;65.30;;;;;;4439582;62;21069;-32
2022/09/30 08:50:15;;;;;;;42.50;26.62;;;22.30;65.30;;;;;;4445417;59;21060;-28
2022/09/30 08:55:31;;;;;;;42.65;28.23;;;22.30;65.40;;;;;;4444415;59;21498;-27
2022/09/30 09:00:33;;;;;;;40.63;27.17;;;22.30;65.40;;;;;;4444292;59;21638;-27
2022/09/30 09:09:55;;;;;;;42.53;28.30;;;22.40;65.50;;;;;;4448978;59;21076;-32
2022/09/30 09:17:43;;;;;;;41.42;27.02;;;22.40;65.50;;;;;;4450774;59;21064;-27
2022/09/30 09:22:45;;;;;;;42.70;27.92;;;22.40;65.60;;;;;;4446099;59;21097;-30
2022/09/30 09:27:57;;;;;;;42.38;29.20;;;22.40;65.60;;;;;;4440022;63;21124;-27
2022/09/30 09:33:40;;;;;;;39.47;28.38;;;22.50;65.80;;;;;;4454504;59;21077;-28
2022/09/30 09:42:32;;;;;;;39.45;27.95;;;22.50;65.80;;;;;;4443623;59;21064;-33
2022/09/30 09:47:33;;;;;;;39.90;25.88;;;22.50;65.80;;;;;;4454687;59;21609;-35
2022/09/30 09:53:07;;;;;;;41.03;28.83;;;22.50;65.90;;;;;;4439648;59;21594;-36
2022/09/30 09:58:13;;;;;;;42.67;30.05;;;22.50;65.80;;;;;;4449796;59;21771;-30
2022/09/30 10:03:23;;;;;;;57.97;38.78;;;22.50;65.80;;;;;;4440371;63;21028;-37
2022/09/30 10:08:25;;;;;;;66.65;45.92;;;22.50;65.80;;;;;;4454160;59;21091;-30
2022/09/30 10:13:50;;;;;;;62.83;44.50;;;22.50;65.90;;;;;;4443333;58;21573;-33
2022/09/30 10:18:51;;;;;;;77.40;50.25;;;22.60;66.00;;;;;;4457548;59;21055;-31
2022/09/30 10:23:52;;;;;;;76.68;49.40;;;22.60;66.00;;;;;;4439930;58;21068;-30
2022/09/30 10:29:03;;;;;;;70.55;47.20;;;22.60;65.90;;;;;;4442346;59;21057;-36
2022/09/30 10:35:25;;;;;;;68.55;45.97;;;22.60;65.90;;;;;;4441762;59;21577;-32
2022/09/30 10:40:28;;;;;;;70.20;47.67;;;22.60;65.90;;;;;;4440155;63;21056;-39
2022/09/30 10:45:37;;;;;;;64.93;45.03;;;22.60;65.90;;;;;;4440560;59;21092;-36
2022/09/30 10:50:39;;;;;;;62.40;43.80;;;22.50;65.80;;;;;;4449165;59;21534;-27
2022/09/30 10:55:42;;;;;;;62.80;44.10;;;22.50;65.70;;;;;;4451786;59;21256;-35
2022/09/30 11:00:43;;;;;;;59.83;40.80;;;22.50;65.70;;;;;;4467308;59;21117;-34
2022/09/30 11:05:48;;;;;;;63.70;43.25;;;22.60;66.30;;;;;;4440814;59;21113;-28
2022/09/30 11:11:54;;;;;;;64.15;44.53;;;22.60;66.20;;;;;;4439903;63;21537;-30
2022/09/30 11:17:32;;;;;;;55.97;41.70;;;22.60;66.50;;;;;;4439862;63;21517;-32
2022/09/30 11:23:11;;;;;;;57.47;41.45;;;22.60;66.70;;;;;;4477802;59;21076;-27
2022/09/30 11:28:43;;;;;;;58.80;41.13;;;22.70;66.90;;;;;;4447535;59;21100;-30
2022/09/30 11:35:44;;;;;;;59.80;41.13;;;22.70;67.10;;;;;;4449834;59;21076;-30
2022/09/30 11:45:25;;;;;;;53.42;40.33;;;22.70;67.10;;;;;;4446850;59;21582;-33
2022/09/30 11:50:45;;;;;;;58.60;42.55;;;22.70;67.20;;;;;;4452434;59;21025;-32
2022/09/30 11:57:12;;;;;;;54.67;40.47;;;22.70;67.30;;;;;;4446694;59;21100;-32
2022/09/30 12:03:53;;;;;;;54.65;39.53;;;22.70;67.10;;;;;;4449984;59;21174;-34
2022/09/30 12:09:00;;;;;;;51.03;38.78;;;22.70;67.00;;;;;;4439714;63;21609;-34
2022/09/30 12:14:09;;;;;;;52.87;40.37;;;22.70;67.00;;;;;;4445295;59;21589;-30
2022/09/30 12:19:19;;;;;;;54.70;41.37;;;22.70;66.90;;;;;;4440743;59;21077;-34
2022/09/30 12:24:45;;;;;;;60.17;43.53;;;22.70;67.00;;;;;;4444892;59;21811;-28
2022/09/30 12:30:19;;;;;;;68.83;49.37;;;22.80;67.10;;;;;;4439998;63;21063;-29
2022/09/30 12:35:59;;;;;;;70.57;52.25;;;22.80;67.30;;;;;;4443610;59;21678;-30
2022/09/30 12:41:47;;;;;;;72.00;50.92;;;22.80;67.40;;;;;;4454519;59;21044;-30
2022/09/30 12:47:26;;;;;;;78.97;54.53;;;22.90;67.00;;;;;;4488022;59;21570;-30
2022/09/30 12:52:32;;;;;;;86.95;59.45;;;22.90;67.50;;;;;;4466326;59;21545;-34
2022/09/30 12:57:39;;;;;;;94.62;67.78;;;22.90;67.00;;;;;;4445797;59;21593;-28
2022/09/30 13:02:46;;;;;;;91.53;65.12;;;22.90;66.70;;;;;;4450172;59;21565;-27
2022/09/30 13:08:22;;;;;;;97.07;70.50;;;22.90;66.70;;;;;;4464747;59;21037;-27
2022/09/30 13:13:26;;;;;;;96.72;69.07;;;22.90;66.80;;;;;;4466145;59;22301;-28
2022/09/30 13:19:20;;;;;;;96.53;70.78;;;22.90;66.70;;;;;;4443679;59;21606;-29
2022/09/30 13:25:04;;;;;;;93.62;68.97;;;22.90;66.60;;;;;;4489471;59;21993;-30
2022/09/30 13:31:18;;;;;;;94.93;66.80;;;22.90;66.60;;;;;;4439701;63;21689;-28
2022/09/30 13:36:26;;;;;;;90.60;65.03;;;22.90;66.60;;;;;;4457969;59;21554;-28
2022/09/30 13:41:27;;;;;;;93.50;64.03;;;22.90;66.60;;;;;;4475711;59;21090;-30
2022/09/30 13:46:48;;;;;;;91.12;68.47;;;22.90;66.50;;;;;;4455257;59;21612;-27
2022/09/30 13:51:51;;;;;;;95.72;68.00;;;22.90;66.40;;;;;;4455730;59;21558;-28
2022/09/30 13:56:53;;;;;;;91.18;66.22;;;22.90;66.30;;;;;;4438656;63;22003;-30
2022/09/30 14:05:13;;;;;;;93.40;65.32;;;22.80;66.40;;;;;;4447874;59;21135;-30
2022/09/30 14:12:13;;;;;;;91.10;65.72;;;22.80;66.50;;;;;;4455427;59;21606;-36
2022/09/30 14:17:44;;;;;;;89.53;63.83;;;22.70;66.50;;;;;;4477738;59;21678;-26
2022/09/30 14:22:46;;;;;;;88.15;63.63;;;22.70;66.60;;;;;;4439612;63;21120;-29
2022/09/30 14:28:17;;;;;;;87.95;61.70;;;22.60;66.70;;;;;;4440289;62;21531;-29
2022/09/30 14:33:24;;;;;;;77.93;58.40;;;22.60;66.70;;;;;;4460590;59;21100;-29
2022/09/30 14:38:28;;;;;;;;;;;22.60;66.80;;;;;;4447449;59;21037;-34
2022/09/30 14:43:34;;;;;;;78.35;59.15;;;22.60;66.80;;;;;;4440302;58;20086;-36
2022/09/30 14:48:41;;;;;;;79.37;60.97;;;22.50;66.70;;;;;;4467036;59;22309;-29
2022/09/30 14:54:01;;;;;;;78.72;59.42;;;22.50;66.70;;;;;;4490459;59;21617;-32
2022/09/30 14:59:32;;;;;;;76.00;58.42;;;22.50;66.80;;;;;;4459278;59;21521;-29
2022/09/30 15:04:37;;;;;;;75.75;56.85;;;22.50;66.80;;;;;;4439947;63;21052;-38
2022/09/30 15:09:42;;;;;;;74.60;56.85;;;22.50;66.80;;;;;;4458416;59;21688;-32
2022/09/30 15:14:54;;;;;;;70.65;55.33;;;22.50;66.80;;;;;;4456699;59;21549;-29
2022/09/30 15:19:57;;;;;;;77.00;57.72;;;22.50;66.80;;;;;;4463109;59;21072;-32
2022/09/30 15:25:01;;;;;;;71.00;56.10;;;22.40;66.80;;;;;;4443144;59;21071;-30
2022/09/30 15:31:05;;;;;;;73.62;56.47;;;22.40;66.80;;;;;;4440463;59;21581;-29
2022/09/30 15:36:17;;;;;;;67.40;53.67;;;22.40;66.70;;;;;;4447949;59;21087;-28
2022/09/30 15:41:18;;;;;;;70.03;52.47;;;22.40;66.70;;;;;;4461430;59;21033;-29
2022/09/30 15:46:26;;;;;;;68.43;52.83;;;22.50;66.80;;;;;;4439183;62;21112;-28
2022/09/30 15:51:33;;;;;;;68.97;53.45;;;22.40;66.70;;;;;;4444752;59;21632;-28
2022/09/30 15:56:36;;;;;;;;;;;22.40;66.70;;;;;;4456561;59;21033;-33
2022/09/30 16:01:45;;;;;;;66.90;53.53;;;22.40;66.70;;;;;;4442300;58;20090;-34
2022/09/30 16:07:08;;;;;;;68.80;53.60;;;22.40;66.70;;;;;;4440098;59;21072;-28
2022/09/30 16:12:18;;;;;;;67.78;52.33;;;22.40;66.80;;;;;;4487906;59;21059;-29
2022/09/30 16:17:34;;;;;;;65.00;52.15;;;22.40;66.70;;;;;;4459575;59;21097;-30
2022/09/30 16:23:25;;;;;;;62.33;50.97;;;22.40;66.70;;;;;;4457178;59;21125;-28
2022/09/30 16:28:26;;;;;;;64.15;52.42;;;22.40;66.70;;;;;;4455963;59;21104;-32
2022/09/30 16:33:27;;;;;;;66.40;52.25;;;22.40;66.70;;;;;;4448082;58;21088;-31
2022/09/30 16:38:28;;;;;;;65.57;51.90;;;22.40;66.80;;;;;;4445247;58;22003;-30
2022/09/30 16:43:30;;;;;;;66.68;52.20;;;22.40;66.70;;;;;;4440473;62;21096;-31
2022/09/30 16:48:33;;;;;;;65.25;51.97;;;22.30;66.60;;;;;;4439713;63;21533;-29
2022/09/30 16:53:34;;;;;;;63.28;52.03;;;22.40;66.70;;;;;;4451260;59;21534;-33
2022/09/30 16:58:35;;;;;;;59.88;46.53;;;22.30;66.60;;;;;;4444731;59;21092;-32
2022/09/30 17:03:36;;;;;;;61.78;50.80;;;22.30;66.60;;;;;;4439699;59;21061;-27
2022/09/30 17:08:36;;;;;;;62.92;50.00;;;22.30;66.60;;;;;;4453586;58;21113;-27
2022/09/30 17:13:37;;;;;;;58.72;47.80;;;22.30;67.20;;;;;;4440098;59;21188;-31
2022/09/30 17:18:39;;;;;;;60.88;50.25;;;22.30;66.50;;;;;;4445463;58;21566;-28
2022/09/30 17:23:40;;;;;;;61.67;50.67;;;22.30;66.50;;;;;;4440584;62;21075;-28
2022/09/30 17:28:41;;;;;;;60.08;48.42;;;22.30;66.50;;;;;;4474774;59;21048;-36
2022/09/30 17:33:42;;;;;;;58.92;49.58;;;22.30;66.50;;;;;;4451180;59;21637;-27
2022/09/30 17:38:42;;;;;;;58.85;47.97;;;22.30;66.50;;;;;;4460160;58;21080;-30
2022/09/30 17:43:47;;;;;;;56.75;47.65;;;22.30;66.50;;;;;;4445420;58;21583;-27
2022/09/30 17:48:49;;;;;;;61.75;49.00;;;22.30;66.50;;;;;;4456413;59;21129;-35
2022/09/30 17:53:50;;;;;;;58.35;47.40;;;22.30;66.50;;;;;;4491750;59;21879;-35
2022/09/30 17:58:51;;;;;;;58.75;46.75;;;22.30;66.60;;;;;;4447011;58;21058;-32
2022/09/30 18:03:52;;;;;;;57.62;47.58;;;22.30;67.00;;;;;;4440354;59;21152;-33
2022/09/30 18:08:56;;;;;;;56.95;46.37;;;22.30;66.50;;;;;;4449336;58;21530;-29
2022/09/30 18:13:58;;;;;;;59.90;48.53;;;22.30;66.50;;;;;;4461365;58;21553;-28
2022/09/30 18:19:01;;;;;;;55.10;46.97;;;22.30;66.50;;;;;;4452461;59;21650;-33
2022/09/30 18:24:03;;;;;;;57.28;47.33;;;22.30;66.50;;;;;;4441505;59;21064;-33
2022/09/30 18:29:05;;;;;;;55.72;45.53;;;22.30;66.50;;;;;;4460256;59;21091;-30
2022/09/30 18:34:06;;;;;;;58.65;47.72;;;22.30;66.50;;;;;;4440316;62;21666;-30
2022/09/30 18:39:06;;;;;;;55.67;45.47;;;22.30;66.50;;;;;;4483975;58;21049;-30
2022/09/30 18:44:08;;;;;;;57.55;45.35;;;22.30;66.50;;;;;;4481293;58;21646;-29
2022/09/30 18:49:12;;;;;;;59.17;46.90;;;22.30;66.50;;;;;;4457742;58;21550;-32
2022/09/30 18:54:15;;;;;;;54.88;46.25;;;22.30;66.50;;;;;;4441783;59;21115;-30
2022/09/30 18:59:16;;;;;;;53.03;44.10;;;22.30;66.50;;;;;;4452248;58;22348;-33
2022/09/30 19:04:17;;;;;;;52.20;43.17;;;22.30;66.50;;;;;;4444549;58;21076;-30
2022/09/30 19:09:18;;;;;;;53.65;43.10;;;22.30;66.50;;;;;;4440084;62;21558;-30
2022/09/30 19:14:19;;;;;;;53.08;43.58;;;22.30;66.50;;;;;;4450853;59;21568;-30
2022/09/30 19:19:21;;;;;;;50.60;42.05;;;22.30;66.50;;;;;;4444655;58;22711;-29
2022/09/30 19:24:23;;;;;;;50.60;42.33;;;22.30;66.50;;;;;;4440141;63;21553;-31
2022/09/30 19:29:24;;;;;;;51.03;42.25;;;22.30;66.50;;;;;;4440004;62;21538;-30
2022/09/30 19:34:25;;;;;;;49.75;41.58;;;22.30;66.50;;;;;;4442470;58;21054;-32
2022/09/30 19:39:27;;;;;;;51.60;42.80;;;22.30;66.40;;;;;;4455896;58;21534;-33
2022/09/30 19:44:30;;;;;;;47.75;40.67;;;22.20;66.40;;;;;;4458408;58;21087;-35
2022/09/30 19:49:31;;;;;;;48.28;41.03;;;22.20;66.30;;;;;;4445523;58;21638;-31
2022/09/30 19:54:32;;;;;;;48.75;40.63;;;22.20;66.30;;;;;;4449322;58;21549;-36
2022/09/30 19:59:34;;;;;;;49.03;41.58;;;22.30;66.40;;;;;;4446922;58;21097;-28
2022/09/30 20:04:34;;;;;;;48.72;40.92;;;22.20;66.30;;;;;;4440251;63;21211;-28
2022/09/30 20:09:35;;;;;;;49.05;41.63;;;22.20;66.30;;;;;;4449000;58;21064;-35
2022/09/30 20:25:19;;;;;;;51.33;39.72;;;22.30;66.30;;;;;;4459131;59;21863;-28
2022/09/30 20:30:20;;;;;;;46.28;38.88;;;22.20;66.30;;;;;;4449744;58;21080;-30
2022/09/30 20:35:21;;;;;;;47.42;38.25;;;22.30;66.30;;;;;;4440019;62;21076;-29
2022/09/30 20:40:22;;;;;;;44.63;36.63;;;22.30;66.30;;;;;;4455261;58;21051;-28
2022/09/30 20:45:25;;;;;;;43.40;36.95;;;22.20;66.20;;;;;;4460192;58;21080;-30
2022/09/30 20:50:35;;;;;;;43.92;35.65;;;22.20;66.20;;;;;;4458175;58;21558;-25
2022/09/30 20:55:38;;;;;;;45.25;36.08;;;22.20;66.20;;;;;;4469145;58;21626;-29
2022/09/30 21:00:40;;;;;;;45.50;35.95;;;22.20;66.10;;;;;;4461055;59;21060;-34
2022/09/30 21:05:51;;;;;;;43.33;36.15;;;22.20;66.10;;;;;;4440781;59;21048;-34
2022/09/30 21:10:52;;;;;;;44.13;35.70;;;22.30;66.10;;;;;;4440147;63;21617;-30
2022/09/30 21:16:00;;;;;;;40.65;33.90;;;22.20;66.00;;;;;;4466558;58;21059;-31
2022/09/30 21:21:01;;;;;;;40.22;35.10;;;22.20;66.00;;;;;;4457748;59;21235;-32
2022/09/30 21:26:22;;;;;;;39.63;32.92;;;22.20;66.00;;;;;;4441200;58;21063;-31
2022/09/30 21:31:25;;;;;;;40.45;33.30;;;22.20;66.00;;;;;;4479400;59;21083;-30
2022/09/30 21:36:27;;;;;;;40.47;34.53;;;22.20;66.00;;;;;;4455329;59;21164;-28
2022/09/30 21:41:31;;;;;;;37.80;33.13;;;22.20;66.00;;;;;;4453170;59;21593;-34
2022/09/30 21:46:34;;;;;;;37.95;32.63;;;22.20;66.00;;;;;;4462336;59;21570;-33
2022/09/30 21:51:35;;;;;;;38.83;32.47;;;22.20;65.90;;;;;;4455046;58;21542;-32
2022/09/30 21:56:36;;;;;;;37.63;31.50;;;22.20;65.90;;;;;;4442433;58;21044;-28
2022/09/30 22:01:38;;;;;;;36.95;30.77;;;22.20;66.00;;;;;;4442934;59;21048;-30
2022/09/30 22:06:39;;;;;;;38.17;32.15;;;22.20;65.90;;;;;;4440264;63;21108;-27
2022/09/30 22:11:41;;;;;;;38.72;32.40;;;22.20;65.90;;;;;;4439546;62;21569;-30
2022/09/30 22:16:43;;;;;;;37.30;30.77;;;22.20;65.90;;;;;;4441524;58;21044;-27
2022/09/30 22:21:43;;;;;;;35.20;30.12;;;22.20;65.90;;;;;;4455012;58;21569;-29
2022/09/30 22:26:46;;;;;;;34.30;30.40;;;22.20;65.80;;;;;;4448789;58;21092;-30
2022/09/30 22:31:47;;;;;;;34.38;29.92;;;22.20;65.80;;;;;;4446417;59;21650;-28
2022/09/30 22:42:08;;;;;;;32.80;28.70;;;22.20;65.80;;;;;;4440325;59;21131;-31
2022/09/30 22:47:09;;;;;;;32.95;29.35;;;22.20;65.80;;;;;;4468378;58;21620;-28
2022/09/30 22:52:11;;;;;;;32.08;28.35;;;22.10;65.70;;;;;;4447808;59;21164;-30
2022/09/30 22:57:12;;;;;;;33.38;28.83;;;22.20;65.70;;;;;;4448153;59;21076;-28
2022/09/30 23:02:13;;;;;;;32.83;28.23;;;22.20;65.70;;;;;;4499756;58;21120;-30
2022/09/30 23:07:16;;;;;;;30.67;27.33;;;22.20;65.70;;;;;;4450730;58;21136;-31
2022/09/30 23:12:17;;;;;;;32.85;28.50;;;22.20;65.70;;;;;;4439997;63;21084;-28
2022/09/30 23:17:17;;;;;;;34.10;27.73;;;22.20;65.70;;;;;;4440118;62;21108;-27
2022/09/30 23:22:18;;;;;;;32.42;27.00;;;22.20;65.70;;;;;;4467986;58;21080;-29
2022/09/30 23:27:19;;;;;;;31.17;26.62;;;22.20;65.70;;;;;;4460898;58;21064;-31
2022/09/30 23:32:20;;;;;;;31.33;26.75;;;22.20;65.70;;;;;;4443685;58;21092;-37
2022/09/30 23:37:21;;;;;;;32.25;26.30;;;22.20;65.60;;;;;;4472469;58;21064;-32
2022/09/30 23:42:21;;;;;;;31.00;26.12;;;22.20;65.60;;;;;;4486293;58;21088;-31
2022/09/30 23:47:22;;;;;;;30.42;25.62;;;22.20;65.60;;;;;;4454140;58;22123;-32
2022/09/30 23:52:23;;;;;;;30.65;25.88;;;22.20;65.50;;;;;;4458087;58;21048;-34
2022/09/30 23:57:24;;;;;;;27.75;24.33;;;22.20;65.60;;;;;;4456577;58;21538;-32
